createdAt,value
2022-10-09T00:01:36.224Z,101025.20
2022-10-09T00:04:09.989Z,101029.60
2022-10-09T00:06:43.940Z,101037.40
2022-10-09T00:09:18.980Z,101035.60
2022-10-09T00:11:52.708Z,101039.20
2022-10-09T00:14:26.508Z,101035.60
2022-10-09T00:17:00.521Z,101044.00
2022-10-09T00:19:34.222Z,101041.80
2022-10-09T00:22:07.786Z,101042.80
2022-10-09T00:24:44.971Z,101045.20
2022-10-09T00:27:18.753Z,101055.80
2022-10-09T00:29:52.806Z,101056.20
2022-10-09T00:32:26.556Z,101059.80
2022-10-09T00:35:00.224Z,101056.00
2022-10-09T00:37:35.370Z,101060.40
2022-10-09T00:40:11.295Z,101062.80
2022-10-09T00:42:45.728Z,101064.20
2022-10-09T00:45:24.490Z,101064.60
2022-10-09T00:48:02.896Z,101070.00
2022-10-09T00:50:46.317Z,101069.20
2022-10-09T00:53:25.305Z,101077.00
2022-10-09T00:56:00.410Z,101070.20
2022-10-09T00:58:34.258Z,101077.60
2022-10-09T01:01:08.319Z,101074.80
2022-10-09T01:03:42.217Z,101071.80
2022-10-09T01:06:27.955Z,101069.60
2022-10-09T01:09:09.483Z,101075.40
2022-10-09T01:11:56.707Z,101080.60
2022-10-09T01:14:35.210Z,101086.80
2022-10-09T01:17:21.693Z,101085.60
2022-10-09T01:20:21.130Z,101087.60
2022-10-09T01:23:19.362Z,101084.60
2022-10-09T01:26:07.230Z,101096.80
2022-10-09T01:28:42.877Z,101098.80
2022-10-09T01:31:19.912Z,101102.00
2022-10-09T01:33:54.529Z,101102.40
2022-10-09T01:36:31.257Z,101102.80
2022-10-09T01:39:09.153Z,101108.60
2022-10-09T01:41:43.714Z,101101.80
2022-10-09T01:44:26.635Z,101104.40
2022-10-09T01:47:01.528Z,101110.40
2022-10-09T01:49:53.511Z,101108.60
2022-10-09T01:52:44.427Z,101114.60
2022-10-09T01:55:41.464Z,101117.00
2022-10-09T01:58:22.944Z,101118.60
2022-10-09T02:01:05.656Z,101124.60
2022-10-09T02:03:43.863Z,101124.80
2022-10-09T02:06:20.641Z,101130.20
2022-10-09T02:08:58.098Z,101129.60
2022-10-09T02:11:37.041Z,101129.40
2022-10-09T02:14:11.535Z,101132.20
2022-10-09T02:16:49.708Z,101133.40
2022-10-09T02:19:31.590Z,101134.40
2022-10-09T02:22:13.528Z,101134.60
2022-10-09T02:24:48.045Z,101139.40
2022-10-09T02:27:24.329Z,101140.80
2022-10-09T02:30:00.065Z,101148.20
2022-10-09T02:32:34.326Z,101151.20
2022-10-09T02:35:09.758Z,101152.20
2022-10-09T02:37:43.382Z,101153.20
2022-10-09T02:40:17.043Z,101160.40
2022-10-09T02:42:51.219Z,101157.80
2022-10-09T02:45:25.315Z,101166.60
2022-10-09T02:47:59.004Z,101173.00
2022-10-09T02:50:32.829Z,101171.20
2022-10-09T02:53:06.632Z,101169.20
2022-10-09T02:55:41.850Z,101178.40
2022-10-09T02:58:16.177Z,101187.60
2022-10-09T03:00:54.406Z,101192.00
2022-10-09T03:03:28.358Z,101190.20
2022-10-09T03:06:09.850Z,101189.20
2022-10-09T03:08:46.400Z,101192.40
2022-10-09T03:11:22.402Z,101185.80
2022-10-09T03:13:57.302Z,101184.80
2022-10-09T03:16:31.430Z,101193.80
2022-10-09T03:19:05.288Z,101196.60
2022-10-09T03:21:39.165Z,101196.80
2022-10-09T03:24:14.040Z,101198.80
2022-10-09T03:26:47.720Z,101209.80
2022-10-09T03:29:21.522Z,101212.20
2022-10-09T03:31:55.573Z,101217.60
2022-10-09T03:34:29.092Z,101221.40
2022-10-09T03:37:02.802Z,101219.20
2022-10-09T03:39:36.300Z,101220.60
2022-10-09T03:42:10.550Z,101218.40
2022-10-09T03:44:44.459Z,101224.80
2022-10-09T03:47:18.392Z,101230.20
2022-10-09T03:49:52.142Z,101226.80
2022-10-09T03:52:25.778Z,101235.60
2022-10-09T03:54:59.780Z,101232.60
2022-10-09T03:57:33.866Z,101236.80
2022-10-09T04:00:10.591Z,101238.40
2022-10-09T04:02:44.456Z,101243.60
2022-10-09T04:05:18.973Z,101245.20
2022-10-09T04:07:52.716Z,101249.00
2022-10-09T04:10:26.567Z,101249.60
2022-10-09T04:13:00.324Z,101253.40
2022-10-09T04:15:35.311Z,101260.40
2022-10-09T04:18:09.420Z,101264.00
2022-10-09T04:20:49.436Z,101261.80
2022-10-09T04:23:25.113Z,101263.00
2022-10-09T04:26:01.506Z,101264.80
2022-10-09T04:28:36.124Z,101259.40
2022-10-09T04:31:10.210Z,101267.20
2022-10-09T04:33:43.937Z,101268.80
2022-10-09T04:36:17.521Z,101265.60
2022-10-09T04:38:52.677Z,101267.20
2022-10-09T04:41:26.688Z,101269.80
2022-10-09T04:44:01.492Z,101269.80
2022-10-09T04:46:35.134Z,101272.40
2022-10-09T04:49:08.922Z,101278.60
2022-10-09T04:51:42.825Z,101279.40
2022-10-09T04:54:16.686Z,101278.20
2022-10-09T04:56:50.472Z,101286.60
2022-10-09T04:59:24.678Z,101290.20
2022-10-09T05:01:58.380Z,101290.60
2022-10-09T05:04:33.061Z,101295.60
2022-10-09T05:07:06.990Z,101297.40
2022-10-09T05:09:40.671Z,101301.40
2022-10-09T05:12:14.347Z,101308.00
2022-10-09T05:14:48.082Z,101308.40
2022-10-09T05:17:23.448Z,101313.40
2022-10-09T05:19:57.462Z,101309.80
2022-10-09T05:22:31.866Z,101312.60
2022-10-09T05:25:06.692Z,101315.20
2022-10-09T05:27:40.365Z,101314.40
2022-10-09T05:30:16.263Z,101308.80
2022-10-09T05:32:50.501Z,101316.80
2022-10-09T05:35:24.617Z,101311.40
2022-10-09T05:37:58.206Z,101311.40
2022-10-09T05:40:31.953Z,101317.00
2022-10-09T05:43:07.038Z,101323.20
2022-10-09T05:45:40.863Z,101329.40
2022-10-09T05:48:15.159Z,101331.00
2022-10-09T05:50:49.156Z,101331.20
2022-10-09T05:53:23.433Z,101333.20
2022-10-09T05:56:01.534Z,101334.00
2022-10-09T05:58:37.233Z,101333.00
2022-10-09T06:01:11.940Z,101332.60
2022-10-09T06:03:49.035Z,101333.80
2022-10-09T06:06:25.551Z,101340.60
2022-10-09T06:09:00.276Z,101342.60
2022-10-09T06:11:37.150Z,101345.40
2022-10-09T06:14:13.968Z,101343.80
2022-10-09T06:16:49.210Z,101350.20
2022-10-09T06:19:23.630Z,101346.60
2022-10-09T06:21:57.691Z,101349.20
2022-10-09T06:24:31.581Z,101348.40
2022-10-09T06:27:05.421Z,101355.80
2022-10-09T06:29:39.259Z,101367.20
2022-10-09T06:32:13.176Z,101365.20
2022-10-09T06:34:46.911Z,101375.60
2022-10-09T06:37:20.925Z,101377.00
2022-10-09T06:39:54.974Z,101376.20
2022-10-09T06:42:28.875Z,101379.80
2022-10-09T06:45:04.189Z,101381.60
2022-10-09T06:47:38.215Z,101377.80
2022-10-09T06:50:13.401Z,101377.60
2022-10-09T06:52:47.716Z,101380.20
2022-10-09T06:55:26.468Z,101384.80
2022-10-09T06:58:02.928Z,101388.00
2022-10-09T07:00:36.984Z,101387.20
2022-10-09T07:03:11.089Z,101390.60
2022-10-09T07:05:45.637Z,101393.80
2022-10-09T07:08:19.380Z,101392.00
2022-10-09T07:10:53.577Z,101391.20
2022-10-09T07:13:27.472Z,101397.40
2022-10-09T07:16:04.815Z,101396.20
2022-10-09T07:18:39.179Z,101397.00
2022-10-09T07:21:13.429Z,101397.00
2022-10-09T07:23:47.567Z,101398.20
2022-10-09T07:26:25.595Z,101393.20
2022-10-09T07:29:00.375Z,101396.80
2022-10-09T07:31:34.749Z,101396.00
2022-10-09T07:34:09.064Z,101401.00
2022-10-09T07:36:43.165Z,101400.20
2022-10-09T07:39:19.093Z,101405.00
2022-10-09T07:41:54.325Z,101404.60
2022-10-09T07:44:28.335Z,101406.80
2022-10-09T07:47:02.660Z,101404.60
2022-10-09T07:49:36.327Z,101405.60
2022-10-09T07:52:10.316Z,101409.00
2022-10-09T07:54:44.092Z,101405.00
2022-10-09T07:57:17.931Z,101408.00
2022-10-09T07:59:51.650Z,101403.20
2022-10-09T08:02:25.335Z,101404.80
2022-10-09T08:04:59.069Z,101408.80
2022-10-09T08:07:35.015Z,101411.00
2022-10-09T08:10:10.974Z,101413.40
2022-10-09T08:12:44.876Z,101415.20
2022-10-09T08:15:18.917Z,101413.60
2022-10-09T08:17:55.204Z,101413.60
2022-10-09T08:20:29.030Z,101409.40
2022-10-09T08:23:03.070Z,101407.60
2022-10-09T08:25:40.102Z,101413.00
2022-10-09T08:28:14.862Z,101412.40
2022-10-09T08:30:49.232Z,101409.60
2022-10-09T08:33:25.013Z,101410.20
2022-10-09T08:36:09.208Z,101409.00
2022-10-09T08:38:47.949Z,101409.80
2022-10-09T08:41:39.100Z,101410.80
2022-10-09T08:44:19.053Z,101414.80
2022-10-09T08:47:06.476Z,101415.80
2022-10-09T08:49:54.891Z,101413.40
2022-10-09T08:52:40.756Z,101410.80
2022-10-09T08:55:24.563Z,101413.00
2022-10-09T08:58:04.490Z,101413.60
2022-10-09T09:00:45.952Z,101409.40
2022-10-09T09:04:00.610Z,101412.20
2022-10-09T09:06:46.155Z,101411.60
2022-10-09T09:09:31.862Z,101406.60
2022-10-09T09:12:15.402Z,101406.00
2022-10-09T09:15:09.238Z,101406.60
2022-10-09T09:17:55.547Z,101406.40
2022-10-09T09:20:40.159Z,101409.00
2022-10-09T09:23:18.624Z,101409.00
2022-10-09T09:25:53.610Z,101408.20
2022-10-09T09:28:32.565Z,101403.60
2022-10-09T09:31:17.321Z,101406.20
2022-10-09T09:34:05.608Z,101406.60
2022-10-09T09:36:50.520Z,101395.60
2022-10-09T09:42:24.931Z,101393.20
2022-10-09T09:45:07.704Z,101395.40
2022-10-09T09:47:51.343Z,101391.00
2022-10-09T09:50:52.964Z,101385.80
2022-10-09T09:53:34.207Z,101387.00
2022-10-09T09:56:09.903Z,101384.80
2022-10-09T09:58:48.271Z,101380.60
2022-10-09T10:01:29.080Z,101374.60
2022-10-09T10:04:05.919Z,101376.20
2022-10-09T10:06:47.087Z,101371.80
2022-10-09T10:09:22.537Z,101376.20
2022-10-09T10:12:01.561Z,101373.20
2022-10-09T10:14:37.181Z,101375.80
2022-10-09T10:17:26.465Z,101370.40
2022-10-09T10:20:00.316Z,101367.40
2022-10-09T10:22:34.652Z,101366.40
2022-10-09T10:25:16.960Z,101372.20
2022-10-09T10:27:54.791Z,101370.40
2022-10-09T10:30:29.312Z,101369.60
2022-10-09T10:33:15.523Z,101367.60
2022-10-09T10:35:55.118Z,101365.60
2022-10-09T10:38:37.199Z,101363.40
2022-10-09T10:41:23.550Z,101365.00
2022-10-09T10:44:04.943Z,101363.40
2022-10-09T10:46:49.766Z,101362.40
2022-10-09T10:49:26.354Z,101370.60
2022-10-09T10:52:21.898Z,101370.60
2022-10-09T10:55:09.515Z,101369.20
2022-10-09T10:57:51.661Z,101361.40
2022-10-09T11:00:27.556Z,101367.40
2022-10-09T11:03:35.297Z,101367.00
2022-10-09T11:06:20.941Z,101374.20
2022-10-09T11:09:14.295Z,101367.20
2022-10-09T11:11:57.000Z,101362.00
2022-10-09T11:14:47.947Z,101367.00
2022-10-09T11:17:35.108Z,101369.00
2022-10-09T11:20:32.127Z,101370.20
2022-10-09T11:23:21.254Z,101371.80
2022-10-09T11:26:07.348Z,101376.60
2022-10-09T11:28:51.774Z,101377.00
2022-10-09T11:31:35.230Z,101376.00
2022-10-09T11:34:18.465Z,101370.00
2022-10-09T11:36:52.608Z,101374.20
2022-10-09T11:39:31.174Z,101370.60
2022-10-09T11:42:06.847Z,101368.00
2022-10-09T11:44:55.106Z,101376.00
2022-10-09T11:47:40.551Z,101377.20
2022-10-09T11:50:37.247Z,101372.80
2022-10-09T11:53:16.210Z,101370.40
2022-10-09T11:55:50.342Z,101362.40
2022-10-09T11:58:28.342Z,101351.00
2022-10-09T12:01:23.245Z,101344.80
2022-10-09T12:04:08.532Z,101336.80
2022-10-09T12:06:54.815Z,101327.20
2022-10-09T12:09:33.502Z,101322.20
2022-10-09T12:12:21.420Z,101319.40
2022-10-09T12:14:56.513Z,101317.00
2022-10-09T12:17:50.153Z,101316.00
2022-10-09T12:20:28.155Z,101319.00
2022-10-09T12:25:59.238Z,101323.40
2022-10-09T12:28:39.271Z,101320.40
2022-10-09T12:31:25.186Z,101325.60
2022-10-09T12:34:04.695Z,101316.60
2022-10-09T12:36:39.171Z,101314.80
2022-10-09T12:39:23.684Z,101309.80
2022-10-09T12:42:00.933Z,101306.40
2022-10-09T12:44:40.182Z,101306.80
2022-10-09T12:47:23.052Z,101300.00
2022-10-09T12:50:23.345Z,101288.60
2022-10-09T12:53:02.038Z,101283.00
2022-10-09T12:55:45.657Z,101279.60
2022-10-09T12:58:26.918Z,101278.40
2022-10-09T13:01:04.895Z,101277.40
2022-10-09T13:03:41.912Z,101275.20
2022-10-09T13:06:22.001Z,101277.20
2022-10-09T13:09:02.061Z,101278.20
2022-10-09T13:11:42.529Z,101276.40
2022-10-09T13:14:36.151Z,101278.00
2022-10-09T13:17:26.877Z,101278.80
2022-10-09T13:20:04.123Z,101271.40
2022-10-09T13:22:38.141Z,101271.20
2022-10-09T13:25:13.583Z,101263.00
2022-10-09T13:27:48.223Z,101261.20
2022-10-09T13:30:23.070Z,101263.60
2022-10-09T13:32:57.143Z,101255.00
2022-10-09T13:35:31.360Z,101253.60
2022-10-09T13:38:05.923Z,101256.60
2022-10-09T13:40:40.572Z,101252.80
2022-10-09T13:43:22.776Z,101251.00
2022-10-09T13:45:56.892Z,101256.20
2022-10-09T13:48:31.402Z,101256.20
2022-10-09T13:51:05.722Z,101257.40
2022-10-09T13:53:40.327Z,101259.60
2022-10-09T13:56:14.336Z,101252.20
2022-10-09T13:58:48.427Z,101252.80
2022-10-09T14:01:23.174Z,101250.00
2022-10-09T14:03:57.641Z,101251.60
2022-10-09T14:06:37.266Z,101252.40
2022-10-09T14:09:11.643Z,101254.40
2022-10-09T14:11:45.684Z,101252.00
2022-10-09T14:14:19.369Z,101251.20
2022-10-09T14:16:53.616Z,101250.20
2022-10-09T14:19:28.204Z,101248.80
2022-10-09T14:22:02.883Z,101247.00
2022-10-09T14:24:36.940Z,101248.60
2022-10-09T14:27:10.962Z,101244.00
2022-10-09T14:29:44.942Z,101242.80
2022-10-09T14:32:18.954Z,101242.60
2022-10-09T14:34:53.176Z,101240.20
2022-10-09T14:37:41.094Z,101237.80
2022-10-09T14:40:16.790Z,101232.20
2022-10-09T14:42:50.765Z,101228.80
2022-10-09T14:45:25.158Z,101231.80
2022-10-09T14:47:59.754Z,101227.40
2022-10-09T14:50:35.776Z,101225.60
2022-10-09T14:53:09.614Z,101226.20
2022-10-09T14:55:43.590Z,101227.40
2022-10-09T14:58:17.649Z,101224.40
2022-10-09T15:00:51.722Z,101224.60
2022-10-09T15:03:25.665Z,101224.00
2022-10-09T15:06:05.629Z,101221.40
2022-10-09T15:08:42.658Z,101219.00
2022-10-09T15:11:17.112Z,101221.40
2022-10-09T15:13:50.987Z,101216.00
2022-10-09T15:16:26.631Z,101216.40
2022-10-09T15:19:00.732Z,101216.60
2022-10-09T15:21:37.185Z,101212.00
2022-10-09T15:24:12.875Z,101212.60
2022-10-09T15:26:46.731Z,101211.40
2022-10-09T15:29:20.500Z,101215.00
2022-10-09T15:31:54.725Z,101208.40
2022-10-09T15:34:29.321Z,101214.80
2022-10-09T15:37:03.254Z,101215.40
2022-10-09T15:39:38.841Z,101214.40
2022-10-09T15:42:13.316Z,101217.40
2022-10-09T15:44:47.360Z,101217.80
2022-10-09T15:47:39.221Z,101227.20
2022-10-09T15:50:15.978Z,101234.20
2022-10-09T15:52:50.050Z,101232.80
2022-10-09T15:55:24.397Z,101235.20
2022-10-09T15:57:58.651Z,101238.00
2022-10-09T16:00:35.547Z,101242.80
2022-10-09T16:03:10.921Z,101243.20
2022-10-09T16:05:51.109Z,101247.60
2022-10-09T16:08:25.098Z,101253.40
2022-10-09T16:10:59.639Z,101254.00
2022-10-09T16:13:33.589Z,101258.80
2022-10-09T16:16:10.304Z,101267.40
2022-10-09T16:18:44.037Z,101264.80
2022-10-09T16:21:20.354Z,101267.00
2022-10-09T16:23:58.886Z,101268.80
2022-10-09T16:26:34.286Z,101276.80
2022-10-09T16:29:08.247Z,101282.00
2022-10-09T16:31:42.160Z,101288.00
2022-10-09T16:34:16.540Z,101289.20
2022-10-09T16:36:50.392Z,101291.80
2022-10-09T16:39:24.488Z,101292.20
2022-10-09T16:42:01.867Z,101302.20
2022-10-09T16:44:35.851Z,101299.80
2022-10-09T16:47:10.018Z,101303.20
2022-10-09T16:49:43.563Z,101306.00
2022-10-09T16:52:17.275Z,101304.20
2022-10-09T16:54:52.012Z,101298.60
2022-10-09T16:57:25.789Z,101305.20
2022-10-09T16:59:59.713Z,101312.80
2022-10-09T17:02:33.426Z,101311.80
2022-10-09T17:05:09.372Z,101318.40
2022-10-09T17:07:43.587Z,101318.20
2022-10-09T17:10:17.869Z,101316.80
2022-10-09T17:12:51.710Z,101318.60
2022-10-09T17:15:25.633Z,101322.20
2022-10-09T17:18:01.061Z,101320.80
2022-10-09T17:20:36.004Z,101326.40
2022-10-09T17:23:10.422Z,101330.80
2022-10-09T17:25:45.536Z,101329.00
2022-10-09T17:28:20.135Z,101326.60
2022-10-09T17:30:54.728Z,101323.40
2022-10-09T17:33:29.034Z,101326.40
2022-10-09T17:36:05.486Z,101325.00
2022-10-09T17:38:40.206Z,101322.80
2022-10-09T17:41:16.523Z,101321.40
2022-10-09T17:43:50.777Z,101328.00
2022-10-09T17:46:26.507Z,101324.40
2022-10-09T17:49:02.232Z,101317.40
2022-10-09T17:51:41.347Z,101317.20
2022-10-09T17:54:18.175Z,101319.80
2022-10-09T17:56:52.300Z,101318.80
2022-10-09T17:59:26.441Z,101322.60
2022-10-09T18:02:01.297Z,101322.80
2022-10-09T18:04:36.588Z,101323.80
2022-10-09T18:07:10.988Z,101325.40
2022-10-09T18:09:45.441Z,101322.60
2022-10-09T18:12:19.302Z,101321.60
2022-10-09T18:14:53.920Z,101324.20
2022-10-09T18:17:30.404Z,101325.20
2022-10-09T18:20:04.480Z,101317.00
2022-10-09T18:22:40.252Z,101318.20
2022-10-09T18:25:15.644Z,101319.60
2022-10-09T18:27:50.373Z,101320.00
2022-10-09T18:30:25.062Z,101318.60
2022-10-09T18:33:01.604Z,101324.60
2022-10-09T18:35:37.873Z,101322.40
2022-10-09T18:38:13.240Z,101323.00
2022-10-09T18:40:48.142Z,101333.00
2022-10-09T18:43:22.475Z,101329.80
2022-10-09T18:45:58.068Z,101323.80
2022-10-09T18:48:36.573Z,101325.40
2022-10-09T18:51:18.256Z,101323.80
2022-10-09T18:53:57.827Z,101322.80
2022-10-09T18:56:35.986Z,101329.40
2022-10-09T18:59:14.952Z,101331.20
2022-10-09T19:01:48.984Z,101323.40
2022-10-09T19:04:23.405Z,101325.20
2022-10-09T19:06:58.186Z,101327.60
2022-10-09T19:09:32.358Z,101332.60
2022-10-09T19:12:06.926Z,101332.80
2022-10-09T19:14:41.314Z,101329.20
2022-10-09T19:17:16.221Z,101325.60
2022-10-09T19:19:52.944Z,101325.40
2022-10-09T19:22:27.039Z,101324.80
2022-10-09T19:25:01.483Z,101320.40
2022-10-09T19:27:36.597Z,101329.00
2022-10-09T19:30:15.210Z,101330.20
2022-10-09T19:32:49.707Z,101330.20
2022-10-09T19:35:23.962Z,101330.60
2022-10-09T19:37:59.786Z,101334.80
2022-10-09T19:40:35.814Z,101330.60
2022-10-09T19:43:10.976Z,101329.60
2022-10-09T19:45:49.149Z,101334.40
2022-10-09T19:48:24.417Z,101336.80
2022-10-09T19:50:59.179Z,101334.40
2022-10-09T19:53:35.061Z,101334.20
2022-10-09T19:56:15.008Z,101328.40
2022-10-09T19:58:50.707Z,101328.00
2022-10-09T20:01:27.664Z,101328.40
2022-10-09T20:04:07.843Z,101333.00
2022-10-09T20:06:43.944Z,101335.40
2022-10-09T20:09:20.878Z,101334.60
2022-10-09T20:11:54.925Z,101330.80
2022-10-09T20:14:30.078Z,101334.00
2022-10-09T20:17:05.476Z,101331.80
2022-10-09T20:19:45.412Z,101337.00
2022-10-09T20:22:19.786Z,101337.00
2022-10-09T20:24:58.070Z,101342.80
2022-10-09T20:27:34.881Z,101336.60
2022-10-09T20:30:11.542Z,101335.60
2022-10-09T20:32:45.574Z,101335.40
2022-10-09T20:35:20.570Z,101337.40
2022-10-09T20:37:54.727Z,101333.20
2022-10-09T20:40:29.310Z,101331.40
2022-10-09T20:43:03.845Z,101331.20
2022-10-09T20:45:44.393Z,101333.00
2022-10-09T20:48:19.110Z,101334.20
2022-10-09T20:50:53.303Z,101326.00
2022-10-09T20:53:27.364Z,101329.60
2022-10-09T20:56:07.860Z,101323.00
2022-10-09T20:58:41.965Z,101319.60
2022-10-09T21:01:17.332Z,101319.00
2022-10-09T21:03:51.870Z,101323.40
2022-10-09T21:06:26.348Z,101318.20
2022-10-09T21:09:00.417Z,101318.60
2022-10-09T21:11:35.133Z,101315.80
2022-10-09T21:14:08.998Z,101321.40
2022-10-09T21:16:43.334Z,101316.60
2022-10-09T21:19:17.487Z,101312.20
2022-10-09T21:21:51.626Z,101315.60
2022-10-09T21:24:25.849Z,101313.00
2022-10-09T21:26:59.889Z,101314.40
2022-10-09T21:29:34.210Z,101316.60
2022-10-09T21:32:09.005Z,101312.60
2022-10-09T21:34:43.203Z,101309.80
2022-10-09T21:37:21.483Z,101305.40
2022-10-09T21:39:56.684Z,101301.40
2022-10-09T21:42:31.061Z,101297.80
2022-10-09T21:45:05.220Z,101298.00
2022-10-09T21:47:39.101Z,101297.40
2022-10-09T21:50:14.270Z,101299.00
2022-10-09T21:52:50.265Z,101295.80
2022-10-09T21:55:24.123Z,101295.60
2022-10-09T21:57:58.914Z,101290.40
2022-10-09T22:00:32.923Z,101290.80
2022-10-09T22:03:06.954Z,101281.00
2022-10-09T22:05:43.398Z,101283.00
2022-10-09T22:08:17.208Z,101277.60
2022-10-09T22:10:51.431Z,101283.20
2022-10-09T22:13:25.229Z,101280.20
2022-10-09T22:15:59.122Z,101280.40
2022-10-09T22:18:33.024Z,101279.20
2022-10-09T22:21:12.005Z,101273.20
2022-10-09T22:23:46.448Z,101272.20
2022-10-09T22:26:23.400Z,101273.80
2022-10-09T22:28:57.094Z,101277.40
2022-10-09T22:31:31.785Z,101276.40
2022-10-09T22:34:06.341Z,101279.00
2022-10-09T22:36:40.345Z,101281.60
2022-10-09T22:39:15.576Z,101284.20
2022-10-09T22:41:49.472Z,101278.00
2022-10-09T22:44:23.547Z,101276.40
2022-10-09T22:46:59.021Z,101275.80
2022-10-09T22:49:33.133Z,101276.00
2022-10-09T22:52:06.782Z,101274.80
2022-10-09T22:54:40.355Z,101269.40
2022-10-09T22:57:14.014Z,101278.40
2022-10-09T22:59:47.897Z,101275.00
2022-10-09T23:02:21.635Z,101271.80
2022-10-09T23:04:55.396Z,101274.00
2022-10-09T23:07:29.124Z,101266.00
2022-10-09T23:10:03.195Z,101263.60
2022-10-09T23:12:36.767Z,101261.60
2022-10-09T23:15:12.065Z,101260.80
2022-10-09T23:17:46.482Z,101258.20
2022-10-09T23:20:20.461Z,101258.00
2022-10-09T23:22:55.534Z,101251.80
2022-10-09T23:25:29.515Z,101246.40
2022-10-09T23:28:03.341Z,101255.20
2022-10-09T23:30:36.993Z,101252.60
2022-10-09T23:33:11.147Z,101248.20
2022-10-09T23:35:48.305Z,101247.60
2022-10-09T23:38:21.941Z,101246.80
2022-10-09T23:41:02.455Z,101243.20
2022-10-09T23:43:39.499Z,101249.00
2022-10-09T23:46:17.253Z,101242.80
2022-10-09T23:48:53.424Z,101245.80
2022-10-09T23:51:30.717Z,101237.40
2022-10-09T23:54:04.759Z,101238.00
2022-10-09T23:56:39.430Z,101239.40
2022-10-09T23:59:14.228Z,101239.80
